createdAt,value
2018-10-11T00:01:26.761Z,17.90
2018-10-11T00:03:58.028Z,18.07
2018-10-11T00:06:29.508Z,18.90
2018-10-11T00:09:00.952Z,18.67
2018-10-11T00:11:32.396Z,19.27
2018-10-11T00:14:03.701Z,20.40
2018-10-11T00:16:34.993Z,19.57
2018-10-11T00:19:06.325Z,19.73
2018-10-11T00:21:37.824Z,19.63
2018-10-11T00:24:09.214Z,18.47
2018-10-11T00:26:40.723Z,17.60
2018-10-11T00:29:12.067Z,17.77
2018-10-11T00:31:43.596Z,18.23
2018-10-11T00:34:14.924Z,19.40
2018-10-11T00:36:46.266Z,18.93
2018-10-11T00:39:17.569Z,17.63
2018-10-11T00:41:48.904Z,19.77
2018-10-11T00:44:21.960Z,21.13
2018-10-11T00:46:53.307Z,19.03
2018-10-11T00:49:24.626Z,21.30
2018-10-11T00:51:55.949Z,18.73
2018-10-11T00:54:27.239Z,18.57
2018-10-11T00:56:59.784Z,19.23
2018-10-11T00:59:31.085Z,17.87
2018-10-11T01:02:02.338Z,19.80
2018-10-11T01:04:33.696Z,21.80
2018-10-11T01:07:05.203Z,21.17
2018-10-11T01:09:36.468Z,18.60
2018-10-11T01:12:08.074Z,19.33
2018-10-11T01:14:39.506Z,18.77
2018-10-11T01:17:10.838Z,19.40
2018-10-11T01:19:42.171Z,19.33
2018-10-11T01:22:13.484Z,19.27
2018-10-11T01:24:44.945Z,19.30
2018-10-11T01:27:16.300Z,18.73
2018-10-11T01:29:47.658Z,18.97
2018-10-11T01:32:19.002Z,19.57
2018-10-11T01:34:50.332Z,20.40
2018-10-11T01:37:21.588Z,19.17
2018-10-11T01:39:53.044Z,19.00
2018-10-11T01:42:24.570Z,21.43
2018-10-11T01:44:55.940Z,18.37
2018-10-11T01:47:27.505Z,18.33
2018-10-11T01:49:58.818Z,18.93
2018-10-11T01:52:30.228Z,18.67
2018-10-11T01:55:01.679Z,18.73
2018-10-11T01:57:32.999Z,19.03
2018-10-11T02:00:04.395Z,18.53
2018-10-11T02:02:35.889Z,18.80
2018-10-11T02:05:07.316Z,20.47
2018-10-11T02:07:38.699Z,18.70
2018-10-11T02:10:09.776Z,18.93
2018-10-11T02:12:41.118Z,21.33
2018-10-11T02:15:12.475Z,19.43
2018-10-11T02:17:43.810Z,19.70
2018-10-11T02:20:15.196Z,21.50
2018-10-11T02:22:46.492Z,19.20
2018-10-11T02:25:17.735Z,19.23
2018-10-11T02:27:48.966Z,18.97
2018-10-11T02:30:20.148Z,19.43
2018-10-11T02:32:51.441Z,19.80
2018-10-11T02:35:22.706Z,19.13
2018-10-11T02:37:54.000Z,18.37
2018-10-11T02:40:25.241Z,19.60
2018-10-11T02:42:56.584Z,17.43
2018-10-11T02:45:27.863Z,18.57
2018-10-11T02:47:59.272Z,17.70
2018-10-11T02:50:30.568Z,19.30
2018-10-11T02:53:01.808Z,18.10
2018-10-11T02:55:33.195Z,19.03
2018-10-11T02:58:21.526Z,18.60
2018-10-11T03:00:53.398Z,18.07
2018-10-11T03:03:28.810Z,17.53
2018-10-11T03:06:01.533Z,18.33
2018-10-11T03:08:32.876Z,18.30
2018-10-11T03:11:04.159Z,18.87
2018-10-11T03:13:35.487Z,19.77
2018-10-11T03:16:06.998Z,18.10
2018-10-11T03:18:38.419Z,18.10
2018-10-11T03:21:09.865Z,18.00
2018-10-11T03:23:41.128Z,19.80
2018-10-11T03:26:12.429Z,19.00
2018-10-11T03:28:43.720Z,16.77
2018-10-11T03:31:15.238Z,18.57
2018-10-11T03:33:46.544Z,18.33
2018-10-11T03:36:17.809Z,20.67
2018-10-11T03:38:49.139Z,19.67
2018-10-11T03:41:20.487Z,17.83
2018-10-11T03:43:51.789Z,20.03
2018-10-11T03:46:23.183Z,18.70
2018-10-11T03:48:54.459Z,18.00
2018-10-11T03:51:25.918Z,18.60
2018-10-11T03:53:57.629Z,18.00
2018-10-11T03:56:28.889Z,18.27
2018-10-11T03:59:00.252Z,19.47
2018-10-11T04:01:31.560Z,18.93
2018-10-11T04:04:02.856Z,18.03
2018-10-11T04:06:34.122Z,19.63
2018-10-11T04:09:06.862Z,19.93
2018-10-11T04:11:38.271Z,19.47
2018-10-11T04:14:09.810Z,20.20
2018-10-11T04:16:41.270Z,20.80
2018-10-11T04:19:12.539Z,21.60
2018-10-11T04:21:43.854Z,19.80
2018-10-11T04:24:15.193Z,21.03
2018-10-11T04:26:46.707Z,21.57
2018-10-11T04:29:18.016Z,21.17
2018-10-11T04:31:49.292Z,20.07
2018-10-11T04:34:20.777Z,26.27
2018-10-11T04:36:52.086Z,22.93
2018-10-11T04:39:23.408Z,22.97
2018-10-11T04:41:54.875Z,23.37
2018-10-11T04:44:26.267Z,24.97
2018-10-11T04:46:57.541Z,25.57
2018-10-11T04:49:28.826Z,22.33
2018-10-11T04:52:00.304Z,21.67
2018-10-11T04:54:31.692Z,22.77
2018-10-11T04:57:03.046Z,21.73
2018-10-11T04:59:34.338Z,23.10
2018-10-11T05:02:05.618Z,22.20
2018-10-11T05:04:36.929Z,20.33
2018-10-11T05:07:08.614Z,21.10
2018-10-11T05:09:39.904Z,22.23
2018-10-11T05:12:11.306Z,27.47
2018-10-11T05:14:42.721Z,24.47
2018-10-11T05:17:14.071Z,21.87
2018-10-11T05:19:45.412Z,20.07
2018-10-11T05:22:16.749Z,20.93
2018-10-11T05:24:48.145Z,20.83
2018-10-11T05:27:19.473Z,19.83
2018-10-11T05:29:50.770Z,22.07
2018-10-11T05:32:22.800Z,20.00
2018-10-11T05:34:54.121Z,25.23
2018-10-11T05:37:25.446Z,21.37
2018-10-11T05:39:56.874Z,23.23
2018-10-11T05:42:28.348Z,19.60
2018-10-11T05:45:14.534Z,24.10
2018-10-11T05:47:46.277Z,22.07
2018-10-11T05:50:17.868Z,24.10
2018-10-11T05:52:49.225Z,19.77
2018-10-11T05:55:20.592Z,22.07
2018-10-11T05:57:51.919Z,21.17
2018-10-11T06:00:23.258Z,23.40
2018-10-11T06:03:02.702Z,23.30
2018-10-11T06:05:34.030Z,23.53
2018-10-11T06:08:05.361Z,20.60
2018-10-11T06:10:39.613Z,21.07
2018-10-11T06:13:11.728Z,23.33
2018-10-11T06:15:43.301Z,22.53
2018-10-11T06:18:14.760Z,20.90
2018-10-11T06:20:46.190Z,21.40
2018-10-11T06:23:17.488Z,24.83
2018-10-11T06:25:48.904Z,21.90
2018-10-11T06:28:20.144Z,21.07
2018-10-11T06:30:51.576Z,25.70
2018-10-11T06:33:22.862Z,21.83
2018-10-11T06:35:54.335Z,25.27
2018-10-11T06:38:25.818Z,19.83
2018-10-11T06:40:57.346Z,20.53
2018-10-11T06:43:28.580Z,21.20
2018-10-11T06:45:59.922Z,22.10
2018-10-11T06:48:31.397Z,22.03
2018-10-11T06:51:02.701Z,23.17
2018-10-11T06:53:34.051Z,22.97
2018-10-11T06:56:05.366Z,22.90
2018-10-11T06:58:36.754Z,23.77
2018-10-11T07:01:08.213Z,22.07
2018-10-11T07:03:39.481Z,22.87
2018-10-11T07:06:10.752Z,25.37
2018-10-11T07:08:41.891Z,23.07
2018-10-11T07:11:13.090Z,23.90
2018-10-11T07:13:44.562Z,23.23
2018-10-11T07:16:15.705Z,22.53
2018-10-11T07:18:47.115Z,21.67
2018-10-11T07:21:18.458Z,21.83
2018-10-11T07:23:49.726Z,21.03
2018-10-11T07:26:21.142Z,22.63
2018-10-11T07:28:52.750Z,19.73
2018-10-11T07:31:24.071Z,24.33
2018-10-11T07:33:55.557Z,20.47
2018-10-11T07:36:26.820Z,20.50
2018-10-11T07:38:58.470Z,21.20
2018-10-11T07:41:29.755Z,20.57
2018-10-11T07:44:01.019Z,24.17
2018-10-11T07:46:32.346Z,20.60
2018-10-11T07:49:05.544Z,22.27
2018-10-11T07:51:37.043Z,31.87
2018-10-11T07:54:08.276Z,29.60
2018-10-11T07:56:39.604Z,28.67
2018-10-11T07:59:10.870Z,28.13
2018-10-11T08:01:42.177Z,23.10
2018-10-11T08:04:13.355Z,26.93
2018-10-11T08:06:44.612Z,23.80
2018-10-11T08:09:15.992Z,21.97
2018-10-11T08:11:47.388Z,22.67
2018-10-11T08:14:18.879Z,21.87
2018-10-11T08:16:50.316Z,23.93
2018-10-11T08:19:21.790Z,22.90
2018-10-11T08:21:52.996Z,20.10
2018-10-11T08:24:24.428Z,22.07
2018-10-11T08:26:55.838Z,23.17
2018-10-11T08:29:27.083Z,21.63
2018-10-11T08:31:58.420Z,22.40
2018-10-11T08:34:29.634Z,19.07
2018-10-11T08:37:01.055Z,18.77
2018-10-11T08:39:32.345Z,22.20
2018-10-11T08:42:03.618Z,20.77
2018-10-11T08:44:34.886Z,20.33
2018-10-11T08:47:06.168Z,18.30
2018-10-11T08:49:37.448Z,20.03
2018-10-11T08:52:09.036Z,18.30
2018-10-11T08:54:50.787Z,17.77
2018-10-11T08:57:22.616Z,19.30
2018-10-11T08:59:53.852Z,17.77
2018-10-11T09:02:25.102Z,19.00
2018-10-11T09:04:56.400Z,17.37
2018-10-11T09:07:27.740Z,20.70
2018-10-11T09:09:58.960Z,18.53
2018-10-11T09:12:30.201Z,18.00
2018-10-11T09:15:01.575Z,18.00
2018-10-11T09:17:32.780Z,17.50
2018-10-11T09:20:04.145Z,17.53
2018-10-11T09:22:35.593Z,18.97
2018-10-11T09:25:07.021Z,15.87
2018-10-11T09:27:38.291Z,18.43
2018-10-11T09:30:09.766Z,18.93
2018-10-11T09:32:41.014Z,16.63
2018-10-11T09:35:12.334Z,16.90
2018-10-11T09:37:43.642Z,15.93
2018-10-11T09:40:14.908Z,16.07
2018-10-11T09:42:46.142Z,21.07
2018-10-11T09:45:17.440Z,18.17
2018-10-11T09:47:48.885Z,17.43
2018-10-11T09:50:20.137Z,17.53
2018-10-11T09:52:51.425Z,17.47
2018-10-11T09:55:22.744Z,17.70
2018-10-11T09:57:54.092Z,16.77
2018-10-11T10:00:30.482Z,17.10
2018-10-11T10:03:01.976Z,25.00
2018-10-11T10:05:33.241Z,22.50
2018-10-11T10:08:04.572Z,19.03
2018-10-11T10:10:38.834Z,20.33
2018-10-11T10:13:10.032Z,23.23
2018-10-11T10:15:41.282Z,29.33
2018-10-11T10:18:12.507Z,20.03
2018-10-11T10:20:43.830Z,22.77
2018-10-11T10:23:15.141Z,17.90
2018-10-11T10:25:46.452Z,19.60
2018-10-11T10:28:17.661Z,18.80
2018-10-11T10:30:55.395Z,18.80
2018-10-11T10:33:26.648Z,17.80
2018-10-11T10:35:57.853Z,19.20
2018-10-11T10:38:29.105Z,18.37
2018-10-11T10:41:00.364Z,17.77
2018-10-11T10:43:31.805Z,18.20
2018-10-11T10:46:03.182Z,18.20
2018-10-11T10:48:34.486Z,18.90
2018-10-11T10:51:05.866Z,19.47
2018-10-11T10:53:38.312Z,17.37
2018-10-11T10:56:10.610Z,18.00
2018-10-11T10:58:42.225Z,17.40
2018-10-11T11:01:13.521Z,17.87
2018-10-11T11:03:44.746Z,19.30
2018-10-11T11:06:16.217Z,18.07
2018-10-11T11:08:47.569Z,16.90
2018-10-11T11:11:18.751Z,17.93
2018-10-11T11:13:50.097Z,17.83
2018-10-11T11:16:21.369Z,17.00
2018-10-11T11:18:52.669Z,15.87
2018-10-11T11:21:23.851Z,18.87
2018-10-11T11:23:55.314Z,15.97
2018-10-11T11:26:26.701Z,16.53
2018-10-11T11:28:58.429Z,19.67
2018-10-11T11:31:30.149Z,16.53
2018-10-11T11:34:02.073Z,19.00
2018-10-11T11:36:33.364Z,15.43
2018-10-11T11:39:06.713Z,16.80
2018-10-11T11:41:38.499Z,15.43
2018-10-11T11:44:09.816Z,14.83
2018-10-11T11:46:41.095Z,14.83
2018-10-11T11:49:12.354Z,18.00
2018-10-11T11:51:43.721Z,14.47
2018-10-11T11:54:21.451Z,16.07
2018-10-11T11:56:53.352Z,14.20
2018-10-11T11:59:24.585Z,15.73
2018-10-11T12:01:55.950Z,16.33
2018-10-11T12:04:27.220Z,30.93
2018-10-11T12:07:13.610Z,24.27
2018-10-11T12:09:44.906Z,36.07
2018-10-11T12:13:10.303Z,22.20
2018-10-11T12:15:42.704Z,26.77
2018-10-11T12:18:13.909Z,25.70
2018-10-11T12:20:45.147Z,29.13
2018-10-11T12:23:16.461Z,23.03
2018-10-11T12:25:47.684Z,23.33
2018-10-11T12:28:18.992Z,19.53
2018-10-11T12:30:50.255Z,21.47
2018-10-11T12:33:21.606Z,18.10
2018-10-11T12:35:52.904Z,19.23
2018-10-11T12:38:24.236Z,15.40
2018-10-11T12:40:55.438Z,19.00
2018-10-11T12:43:26.740Z,16.70
2018-10-11T12:45:58.012Z,19.13
2018-10-11T12:48:29.357Z,17.67
2018-10-11T12:51:00.595Z,15.63
2018-10-11T12:53:31.829Z,16.47
2018-10-11T12:56:03.136Z,15.20
2018-10-11T12:58:34.313Z,15.93
2018-10-11T13:01:05.590Z,18.47
2018-10-11T13:03:36.894Z,16.20
2018-10-11T13:06:08.042Z,20.83
2018-10-11T13:08:39.351Z,17.53
2018-10-11T13:11:10.496Z,14.37
2018-10-11T13:13:46.955Z,14.40
2018-10-11T13:16:12.904Z,14.73
2018-10-11T13:18:44.033Z,16.17
2018-10-11T13:21:15.342Z,14.83
2018-10-11T13:23:46.612Z,14.57
2018-10-11T13:26:17.987Z,14.60
2018-10-11T13:28:49.384Z,16.53
2018-10-11T13:31:20.503Z,14.77
2018-10-11T13:33:52.998Z,13.37
2018-10-11T13:36:22.903Z,13.30
2018-10-11T13:38:54.030Z,12.83
2018-10-11T13:41:25.271Z,13.47
2018-10-11T13:43:56.489Z,13.00
2018-10-11T13:46:27.731Z,12.37
2018-10-11T13:48:59.137Z,12.47
2018-10-11T13:51:31.094Z,13.30
2018-10-11T13:54:02.443Z,13.33
2018-10-11T13:56:33.656Z,13.40
2018-10-11T13:59:07.701Z,12.33
2018-10-11T14:01:36.203Z,13.23
2018-10-11T14:04:08.255Z,12.43
2018-10-11T14:06:39.479Z,12.67
2018-10-11T14:09:12.761Z,12.30
2018-10-11T14:11:43.898Z,12.27
2018-10-11T14:14:15.097Z,11.40
2018-10-11T14:16:46.254Z,12.97
2018-10-11T14:19:17.409Z,12.17
2018-10-11T14:21:48.647Z,14.00
2018-10-11T14:24:19.950Z,12.30
2018-10-11T14:26:51.199Z,12.03
2018-10-11T14:29:22.402Z,12.43
2018-10-11T14:31:53.559Z,12.23
2018-10-11T14:34:24.786Z,12.40
2018-10-11T14:36:56.158Z,12.10
2018-10-11T14:39:27.208Z,12.20
2018-10-11T14:41:58.421Z,12.10
2018-10-11T14:44:29.555Z,15.20
2018-10-11T14:47:00.851Z,12.77
2018-10-11T14:49:32.083Z,11.70
2018-10-11T14:52:03.386Z,14.90
2018-10-11T14:54:35.181Z,13.17
2018-10-11T14:57:07.361Z,12.57
2018-10-11T14:59:38.751Z,12.53
2018-10-11T15:02:16.381Z,12.80
2018-10-11T15:04:47.611Z,12.47
2018-10-11T15:07:18.881Z,12.43
2018-10-11T15:09:50.348Z,14.53
2018-10-11T15:12:21.599Z,13.30
2018-10-11T15:14:52.896Z,12.57
2018-10-11T15:17:24.230Z,14.20
2018-10-11T15:19:55.549Z,13.47
2018-10-11T15:22:26.837Z,13.00
2018-10-11T15:24:58.064Z,12.47
2018-10-11T15:27:29.477Z,12.67
2018-10-11T15:30:00.715Z,12.67
2018-10-11T15:32:32.052Z,11.70
2018-10-11T15:35:03.356Z,12.13
2018-10-11T15:37:34.596Z,16.43
2018-10-11T15:40:05.937Z,16.57
2018-10-11T15:42:37.297Z,15.10
2018-10-11T15:45:09.528Z,12.90
2018-10-11T15:47:41.293Z,16.10
2018-10-11T15:50:12.521Z,13.37
2018-10-11T15:52:43.815Z,12.27
2018-10-11T15:55:16.003Z,13.57
2018-10-11T15:57:48.068Z,15.47
2018-10-11T16:00:19.226Z,12.33
2018-10-11T16:02:53.576Z,13.10
2018-10-11T16:05:24.771Z,24.80
2018-10-11T16:07:56.049Z,17.03
2018-10-11T16:10:27.294Z,12.33
2018-10-11T16:12:58.663Z,11.97
2018-10-11T16:15:29.929Z,15.60
2018-10-11T16:18:01.251Z,18.73
2018-10-11T16:20:32.607Z,15.70
2018-10-11T16:23:04.075Z,17.80
2018-10-11T16:25:35.361Z,14.20
2018-10-11T16:28:06.701Z,14.03
2018-10-11T16:30:38.144Z,13.70
2018-10-11T16:33:09.408Z,17.97
2018-10-11T16:35:40.694Z,16.73
2018-10-11T16:38:11.966Z,18.13
2018-10-11T16:40:43.279Z,16.83
2018-10-11T16:43:14.573Z,17.87
2018-10-11T16:45:45.780Z,16.17
2018-10-11T16:48:17.056Z,16.20
2018-10-11T16:50:48.361Z,17.77
2018-10-11T16:53:19.642Z,18.27
2018-10-11T16:55:50.941Z,16.07
2018-10-11T16:58:22.184Z,19.53
2018-10-11T17:00:53.431Z,16.90
2018-10-11T17:03:24.680Z,16.43
2018-10-11T17:05:55.962Z,15.60
2018-10-11T17:08:27.159Z,24.00
2018-10-11T17:10:58.486Z,17.73
2018-10-11T17:13:29.752Z,18.13
2018-10-11T17:16:01.063Z,15.43
2018-10-11T17:18:32.375Z,18.23
2018-10-11T17:21:03.664Z,15.30
2018-10-11T17:23:35.117Z,13.97
2018-10-11T17:26:06.442Z,15.90
2018-10-11T17:28:37.640Z,12.57
2018-10-11T17:31:09.489Z,14.53
2018-10-11T17:33:40.722Z,15.63
2018-10-11T17:36:12.232Z,13.00
2018-10-11T17:38:43.587Z,16.60
2018-10-11T17:41:14.838Z,15.13
2018-10-11T17:43:46.468Z,14.87
2018-10-11T17:46:17.961Z,16.07
2018-10-11T17:48:49.224Z,13.77
2018-10-11T17:51:20.509Z,16.37
2018-10-11T17:53:51.958Z,12.77
2018-10-11T17:56:23.505Z,14.37
2018-10-11T17:58:55.367Z,14.53
2018-10-11T18:01:26.914Z,16.20
2018-10-11T18:03:58.277Z,12.27
2018-10-11T18:06:30.001Z,13.13
2018-10-11T18:09:01.284Z,13.93
2018-10-11T18:11:32.736Z,13.30
2018-10-11T18:14:04.267Z,13.60
2018-10-11T18:16:36.022Z,12.53
2018-10-11T18:19:07.504Z,14.70
2018-10-11T18:21:38.815Z,13.63
2018-10-11T18:24:10.479Z,16.23
2018-10-11T18:26:42.363Z,20.90
2018-10-11T18:29:13.857Z,12.93
2018-10-11T18:31:45.289Z,14.07
2018-10-11T18:34:16.804Z,12.47
2018-10-11T18:36:48.125Z,14.80
2018-10-11T18:39:19.459Z,16.30
2018-10-11T18:41:55.509Z,13.03
2018-10-11T18:44:27.523Z,16.77
2018-10-11T18:46:58.934Z,13.53
2018-10-11T18:49:30.228Z,14.70
2018-10-11T18:52:01.664Z,12.27
2018-10-11T18:54:33.181Z,14.87
2018-10-11T18:57:04.457Z,12.30
2018-10-11T18:59:35.834Z,15.67
2018-10-11T19:02:07.508Z,11.53
2018-10-11T19:04:38.885Z,12.03
2018-10-11T19:07:10.470Z,15.00
2018-10-11T19:09:41.780Z,14.17
2018-10-11T19:12:13.152Z,13.10
2018-10-11T19:14:44.788Z,12.00
2018-10-11T19:17:16.232Z,11.47
2018-10-11T19:19:47.845Z,15.98
2018-10-11T19:22:19.224Z,15.90
2018-10-11T19:24:50.649Z,15.07
2018-10-11T19:27:22.072Z,17.98
2018-10-11T19:33:25.155Z,17.87
2018-10-11T19:35:56.794Z,14.80
2018-10-11T19:38:28.424Z,16.33
2018-10-11T19:41:00.062Z,12.83
2018-10-11T19:43:35.695Z,13.93
2018-10-11T19:46:08.059Z,12.70
2018-10-11T19:48:39.688Z,12.73
2018-10-11T19:51:11.238Z,17.87
2018-10-11T19:53:42.907Z,13.63
2018-10-11T19:56:14.548Z,15.77
2018-10-11T19:58:46.178Z,14.00
2018-10-11T20:01:17.704Z,12.43
2018-10-11T20:03:49.594Z,12.90
2018-10-11T20:06:21.140Z,12.67
2018-10-11T20:08:52.819Z,15.33
2018-10-11T20:11:24.420Z,13.20
2018-10-11T20:13:56.126Z,13.47
2018-10-11T20:17:09.287Z,13.03
2018-10-11T20:19:40.883Z,12.63
2018-10-11T20:22:13.319Z,13.80
2018-10-11T20:24:44.880Z,11.77
2018-10-11T20:27:16.450Z,16.40
2018-10-11T20:29:48.154Z,11.23
2018-10-11T20:32:19.686Z,12.47
2018-10-11T20:34:51.335Z,12.33
2018-10-11T20:37:23.020Z,12.97
2018-10-11T20:39:54.638Z,17.97
2018-10-11T20:42:26.170Z,19.47
2018-10-11T20:44:57.923Z,17.13
2018-10-11T20:47:29.478Z,17.60
2018-10-11T20:50:01.062Z,21.53
2018-10-11T20:52:32.696Z,18.60
2018-10-11T20:55:04.377Z,16.53
2018-10-11T20:57:36.068Z,16.03
2018-10-11T21:00:08.932Z,18.17
2018-10-11T21:02:40.681Z,15.37
2018-10-11T21:05:12.578Z,14.30
2018-10-11T21:07:44.218Z,15.67
2018-10-11T21:10:15.721Z,15.07
2018-10-11T21:12:47.540Z,17.43
2018-10-11T21:15:18.995Z,17.70
2018-10-11T21:17:50.808Z,15.73
2018-10-11T21:20:22.465Z,15.83
2018-10-11T21:22:53.980Z,15.27
2018-10-11T21:25:25.552Z,15.83
2018-10-11T21:27:57.211Z,14.67
2018-10-11T21:30:28.760Z,14.30
2018-10-11T21:33:00.427Z,18.53
2018-10-11T21:35:32.066Z,15.20
2018-10-11T21:38:03.870Z,17.23
2018-10-11T21:40:35.422Z,17.83
2018-10-11T21:43:06.928Z,15.43
2018-10-11T21:45:38.567Z,16.57
2018-10-11T21:48:10.022Z,14.30
2018-10-11T21:50:41.596Z,15.27
2018-10-11T21:53:13.345Z,15.87
2018-10-11T21:55:44.907Z,15.73
2018-10-11T21:58:16.566Z,15.40
2018-10-11T22:00:53.460Z,16.07
2018-10-11T22:03:25.394Z,16.03
2018-10-11T22:05:56.956Z,15.40
2018-10-11T22:08:28.560Z,15.67
2018-10-11T22:11:00.338Z,19.43
2018-10-11T22:13:31.887Z,17.90
2018-10-11T22:16:03.431Z,16.47
2018-10-11T22:18:35.098Z,15.93
2018-10-11T22:21:06.753Z,18.13
2018-10-11T22:23:38.971Z,16.00
2018-10-11T22:26:10.879Z,17.53
2018-10-11T22:28:42.551Z,15.70
2018-10-11T22:31:14.335Z,15.77
2018-10-11T22:33:45.933Z,15.73
2018-10-11T22:36:17.459Z,15.93
2018-10-11T22:38:49.071Z,15.67
2018-10-11T22:41:20.662Z,16.30
2018-10-11T22:43:52.345Z,17.07
2018-10-11T22:46:24.170Z,18.50
2018-10-11T22:48:55.684Z,16.87
2018-10-11T22:51:27.217Z,17.77
2018-10-11T22:53:58.801Z,16.40
2018-10-11T22:56:30.389Z,17.20
2018-10-11T22:59:02.112Z,16.30
2018-10-11T23:01:33.843Z,15.80
2018-10-11T23:04:05.427Z,15.77
2018-10-11T23:06:37.021Z,15.73
2018-10-11T23:09:09.386Z,16.90
2018-10-11T23:11:41.118Z,16.93
2018-10-11T23:14:12.719Z,17.27
2018-10-11T23:16:44.321Z,16.80
2018-10-11T23:19:15.874Z,16.57
2018-10-11T23:21:47.501Z,16.20
2018-10-11T23:24:19.055Z,17.13
2018-10-11T23:26:50.597Z,15.40
2018-10-11T23:29:22.155Z,18.87
2018-10-11T23:31:53.776Z,19.23
2018-10-11T23:34:25.497Z,16.73
2018-10-11T23:36:57.126Z,20.30
2018-10-11T23:39:28.705Z,17.47
2018-10-11T23:42:00.205Z,16.80
2018-10-11T23:44:31.659Z,17.13
2018-10-11T23:47:03.213Z,18.07
2018-10-11T23:49:34.724Z,17.77
2018-10-11T23:52:06.561Z,17.60
2018-10-11T23:54:38.236Z,17.13
2018-10-11T23:57:10.004Z,20.57
2018-10-11T23:59:41.534Z,16.27
